Mc Clellan-Palomar Airport
KCRQ : rendu visible

Aérodrome :











RETROUVEZ-NOUS SUR...

 
LOGIN :

S'inscrire | Disclaimer

   EN    FR    IT 

 









Légende :    VFR   VFR Marginal   IFR   IFR Intensif   IFR Très Intensif
Visi : 
Plafond : 
>= 8 km
>= 3000ft
5 à 8 km
1000 à 3000 ft
1500m à 5 km
500 à 1000 ft
800 à 1500m
200 à 500 ft
< 800m
< 200 ft
Symboles :   Orages  Brouillard  Fortes neiges  Fortes précipitations  Vent > 20 kt






- Altitude de l'aérodrome : 331 ft


KCRQ - Mc Clellan-Palomar

DERNIER METAR :
  • 041353Z AUTO 00000KT 3SM BR OVC003 18/16 A2998 RMK AO2 SLP149 T01780161

METARs EXPIRÉS :
  • 041253Z AUTO 00000KT 6SM BR OVC004 18/16 A2997 RMK AO2 SLP144 T01780161
  • 041153Z AUTO 00000KT 9SM OVC006 18/17 A2996 RMK AO2 SLP142 T01830167 10206 20183 55002

TAF KCRQ
Valide du 04 à 12h jusqu'au 05 à 12h UTC


041120Z 0412/0512 VRB02KT P6SM BKN005
FM041600 VRB03KT P6SM FEW008
FM041800 26007KT P6SM SKC
FM050300 VRB02KT P6SM SKC
FM050600 VRB02KT 5SM BR BKN005
FIR KZLA / Amérique du Nord



MET'MAP, la Météo Aéronautique d'un coup d'oeil ! - Copyright ORBIFLY Décembre 2007 - Disclaimer

ORBIFLY MET'MAP TEAM :

Programmation & Développement : Alexandra Zaïnal
Sur une idée originale de : Baudouin d'Aumeries
Assistance à la programmation : Marc-Olivier Méhu
Soutien technique & logistique : Manuel Goepfert

Contact : metmap@orbifly.com




SOURCES & CREDITS :

   NOAA       Earth
Advisory